Terminal Aerodrome Forecast
Issued by NWS

Home | Current Version | Previous Version | Text Only | Print | Product List | Glossary On
Versions: 1 2 3 4 5 6 7 8 9 10 11 12 13 14 15 16 17 18 19 20 21 22 23 24 25 26 27 28 29 30
000
FTUS44 KFWD 210900 AAB
TAFAFW
TAF AMD
KAFW 210909Z 2109/2206 15005KT P6SM BKN009 OVC025
     FM211100 16007KT 5SM BR OVC008
     FM211800 17012KT P6SM BKN015
     FM220500 17010KT 5SM BR OVC008=

USA.gov is the U.S. government's official web portal to all federal, state and local government web resources and services.